sensor_id;sensor_type;location;lat;lon;timestamp;temperature;humidity
17421;DHT22;8828;48.800;9.540;2023-02-26T00:01:00;3.40;99.90
17421;DHT22;8828;48.800;9.540;2023-02-26T00:03:28;3.30;99.90
17421;DHT22;8828;48.800;9.540;2023-02-26T00:05:59;3.30;99.90
17421;DHT22;8828;48.800;9.540;2023-02-26T00:08:28;3.20;99.90
17421;DHT22;8828;48.800;9.540;2023-02-26T00:10:57;3.20;99.90
17421;DHT22;8828;48.800;9.540;2023-02-26T00:13:29;3.10;99.90
17421;DHT22;8828;48.800;9.540;2023-02-26T00:15:59;3.10;99.90
17421;DHT22;8828;48.800;9.540;2023-02-26T00:18:28;3.10;99.90
17421;DHT22;8828;48.800;9.540;2023-02-26T00:20:56;3.10;99.90
17421;DHT22;8828;48.800;9.540;2023-02-26T00:23:24;3.00;99.90
17421;DHT22;8828;48.800;9.540;2023-02-26T00:25:52;3.00;99.90
17421;DHT22;8828;48.800;9.540;2023-02-26T00:28:21;3.00;99.90
17421;DHT22;8828;48.800;9.540;2023-02-26T00:30:51;3.00;99.90
17421;DHT22;8828;48.800;9.540;2023-02-26T00:33:19;3.00;99.90
17421;DHT22;8828;48.800;9.540;2023-02-26T00:35:48;3.00;99.90
17421;DHT22;8828;48.800;9.540;2023-02-26T00:38:17;2.90;99.90
17421;DHT22;8828;48.800;9.540;2023-02-26T00:40:48;2.90;99.90
17421;DHT22;8828;48.800;9.540;2023-02-26T00:43:20;2.80;99.90
17421;DHT22;8828;48.800;9.540;2023-02-26T00:45:55;2.70;99.90
17421;DHT22;8828;48.800;9.540;2023-02-26T00:48:39;2.70;99.90
17421;DHT22;8828;48.800;9.540;2023-02-26T00:51:14;2.70;99.90
17421;DHT22;8828;48.800;9.540;2023-02-26T00:53:48;2.70;99.90
17421;DHT22;8828;48.800;9.540;2023-02-26T00:56:19;2.70;99.90
17421;DHT22;8828;48.800;9.540;2023-02-26T00:58:48;2.60;99.90
17421;DHT22;8828;48.800;9.540;2023-02-26T01:01:17;2.50;99.90
17421;DHT22;8828;48.800;9.540;2023-02-26T01:03:45;2.50;99.90
17421;DHT22;8828;48.800;9.540;2023-02-26T01:06:16;2.50;99.90
17421;DHT22;8828;48.800;9.540;2023-02-26T01:08:50;2.40;99.90
17421;DHT22;8828;48.800;9.540;2023-02-26T01:11:20;2.40;99.90
17421;DHT22;8828;48.800;9.540;2023-02-26T01:13:48;2.30;99.90
17421;DHT22;8828;48.800;9.540;2023-02-26T01:16:22;2.30;99.90
17421;DHT22;8828;48.800;9.540;2023-02-26T01:18:56;2.30;99.90
17421;DHT22;8828;48.800;9.540;2023-02-26T01:21:32;2.20;99.90
17421;DHT22;8828;48.800;9.540;2023-02-26T01:24:04;2.20;99.90
17421;DHT22;8828;48.800;9.540;2023-02-26T01:26:32;2.10;99.90
17421;DHT22;8828;48.800;9.540;2023-02-26T01:29:01;2.10;99.90
17421;DHT22;8828;48.800;9.540;2023-02-26T01:31:37;2.10;99.90
17421;DHT22;8828;48.800;9.540;2023-02-26T01:34:09;2.10;99.90
17421;DHT22;8828;48.800;9.540;2023-02-26T01:36:44;2.00;99.90
17421;DHT22;8828;48.800;9.540;2023-02-26T01:39:19;2.00;99.90
17421;DHT22;8828;48.800;9.540;2023-02-26T01:41:54;2.10;99.90
17421;DHT22;8828;48.800;9.540;2023-02-26T01:44:26;2.10;99.90
17421;DHT22;8828;48.800;9.540;2023-02-26T01:47:05;2.10;99.90
17421;DHT22;8828;48.800;9.540;2023-02-26T01:49:37;2.00;99.90
17421;DHT22;8828;48.800;9.540;2023-02-26T01:52:06;2.00;99.90
17421;DHT22;8828;48.800;9.540;2023-02-26T01:54:36;2.00;99.90
17421;DHT22;8828;48.800;9.540;2023-02-26T01:57:06;2.00;99.90
17421;DHT22;8828;48.800;9.540;2023-02-26T01:59:37;1.90;99.90
17421;DHT22;8828;48.800;9.540;2023-02-26T02:02:09;1.90;99.90
17421;DHT22;8828;48.800;9.540;2023-02-26T02:04:38;1.90;99.90
17421;DHT22;8828;48.800;9.540;2023-02-26T02:07:06;1.90;99.90
17421;DHT22;8828;48.800;9.540;2023-02-26T02:09:35;1.80;99.90
17421;DHT22;8828;48.800;9.540;2023-02-26T02:12:20;1.80;99.90
17421;DHT22;8828;48.800;9.540;2023-02-26T02:14:57;1.70;99.90
17421;DHT22;8828;48.800;9.540;2023-02-26T02:17:40;1.70;99.90
17421;DHT22;8828;48.800;9.540;2023-02-26T02:20:34;1.70;99.90
17421;DHT22;8828;48.800;9.540;2023-02-26T02:23:10;1.60;99.90
17421;DHT22;8828;48.800;9.540;2023-02-26T02:28:45;1.60;99.90
17421;DHT22;8828;48.800;9.540;2023-02-26T02:31:21;1.60;99.90
17421;DHT22;8828;48.800;9.540;2023-02-26T02:33:52;1.60;99.90
17421;DHT22;8828;48.800;9.540;2023-02-26T02:36:27;1.50;99.90
17421;DHT22;8828;48.800;9.540;2023-02-26T02:39:00;1.50;99.90
17421;DHT22;8828;48.800;9.540;2023-02-26T02:41:33;1.50;99.90
17421;DHT22;8828;48.800;9.540;2023-02-26T02:44:05;1.40;99.90
17421;DHT22;8828;48.800;9.540;2023-02-26T02:46:38;1.40;99.90
17421;DHT22;8828;48.800;9.540;2023-02-26T02:49:10;1.40;99.90
17421;DHT22;8828;48.800;9.540;2023-02-26T02:51:43;1.30;99.90
17421;DHT22;8828;48.800;9.540;2023-02-26T02:54:15;1.20;99.90
17421;DHT22;8828;48.800;9.540;2023-02-26T02:56:50;1.20;99.90
17421;DHT22;8828;48.800;9.540;2023-02-26T02:59:26;1.20;99.90
17421;DHT22;8828;48.800;9.540;2023-02-26T03:02:00;1.10;99.90
17421;DHT22;8828;48.800;9.540;2023-02-26T03:04:30;1.10;99.90
17421;DHT22;8828;48.800;9.540;2023-02-26T03:06:58;1.00;99.90
17421;DHT22;8828;48.800;9.540;2023-02-26T03:09:26;1.10;99.90
17421;DHT22;8828;48.800;9.540;2023-02-26T03:11:54;1.10;99.90
17421;DHT22;8828;48.800;9.540;2023-02-26T03:14:22;1.10;99.90
17421;DHT22;8828;48.800;9.540;2023-02-26T03:17:06;1.10;99.90
17421;DHT22;8828;48.800;9.540;2023-02-26T03:19:40;1.10;99.90
17421;DHT22;8828;48.800;9.540;2023-02-26T03:22:16;1.10;99.90
17421;DHT22;8828;48.800;9.540;2023-02-26T03:24:49;1.10;99.90
17421;DHT22;8828;48.800;9.540;2023-02-26T03:27:22;1.00;99.90
17421;DHT22;8828;48.800;9.540;2023-02-26T03:29:55;0.90;99.90
17421;DHT22;8828;48.800;9.540;2023-02-26T03:32:30;1.00;99.90
17421;DHT22;8828;48.800;9.540;2023-02-26T03:35:04;0.90;99.90
17421;DHT22;8828;48.800;9.540;2023-02-26T03:37:36;0.90;99.90
17421;DHT22;8828;48.800;9.540;2023-02-26T03:40:09;0.90;99.90
17421;DHT22;8828;48.800;9.540;2023-02-26T03:42:42;0.90;99.90
17421;DHT22;8828;48.800;9.540;2023-02-26T03:45:13;0.90;99.90
17421;DHT22;8828;48.800;9.540;2023-02-26T03:47:47;0.90;99.90
17421;DHT22;8828;48.800;9.540;2023-02-26T03:50:18;0.90;99.90
17421;DHT22;8828;48.800;9.540;2023-02-26T03:52:48;0.90;99.90
17421;DHT22;8828;48.800;9.540;2023-02-26T03:55:20;0.80;99.90
17421;DHT22;8828;48.800;9.540;2023-02-26T03:57:50;0.80;99.90
17421;DHT22;8828;48.800;9.540;2023-02-26T04:00:19;0.80;99.90
17421;DHT22;8828;48.800;9.540;2023-02-26T04:02:54;0.70;99.90
17421;DHT22;8828;48.800;9.540;2023-02-26T04:05:25;0.70;99.90
17421;DHT22;8828;48.800;9.540;2023-02-26T04:07:56;0.70;99.90
17421;DHT22;8828;48.800;9.540;2023-02-26T04:10:28;0.70;99.90
17421;DHT22;8828;48.800;9.540;2023-02-26T04:12:59;0.70;99.90
17421;DHT22;8828;48.800;9.540;2023-02-26T04:15:28;0.70;99.90
17421;DHT22;8828;48.800;9.540;2023-02-26T04:17:57;0.70;99.90
17421;DHT22;8828;48.800;9.540;2023-02-26T04:20:25;0.70;99.90
17421;DHT22;8828;48.800;9.540;2023-02-26T04:22:53;0.60;99.90
17421;DHT22;8828;48.800;9.540;2023-02-26T04:25:22;0.60;99.90
17421;DHT22;8828;48.800;9.540;2023-02-26T04:27:50;0.60;99.90
17421;DHT22;8828;48.800;9.540;2023-02-26T04:30:18;0.50;99.90
17421;DHT22;8828;48.800;9.540;2023-02-26T04:32:45;0.50;99.90
17421;DHT22;8828;48.800;9.540;2023-02-26T04:35:15;0.50;99.90
17421;DHT22;8828;48.800;9.540;2023-02-26T04:37:43;0.50;99.90
17421;DHT22;8828;48.800;9.540;2023-02-26T04:40:11;0.50;99.90
17421;DHT22;8828;48.800;9.540;2023-02-26T04:42:39;0.40;99.90
17421;DHT22;8828;48.800;9.540;2023-02-26T04:45:08;0.40;99.90
17421;DHT22;8828;48.800;9.540;2023-02-26T04:47:36;0.40;99.90
17421;DHT22;8828;48.800;9.540;2023-02-26T04:50:05;0.30;99.90
17421;DHT22;8828;48.800;9.540;2023-02-26T04:52:34;0.30;99.90
17421;DHT22;8828;48.800;9.540;2023-02-26T04:55:03;0.30;99.90
17421;DHT22;8828;48.800;9.540;2023-02-26T04:57:33;0.30;99.90
17421;DHT22;8828;48.800;9.540;2023-02-26T05:00:00;0.30;99.90
17421;DHT22;8828;48.800;9.540;2023-02-26T05:02:32;0.30;99.90
17421;DHT22;8828;48.800;9.540;2023-02-26T05:05:00;0.30;99.90
17421;DHT22;8828;48.800;9.540;2023-02-26T05:07:28;0.30;99.90
17421;DHT22;8828;48.800;9.540;2023-02-26T05:09:57;0.30;99.90
17421;DHT22;8828;48.800;9.540;2023-02-26T05:12:25;0.30;99.90
17421;DHT22;8828;48.800;9.540;2023-02-26T05:14:53;0.30;99.90
17421;DHT22;8828;48.800;9.540;2023-02-26T05:17:21;0.30;99.90
17421;DHT22;8828;48.800;9.540;2023-02-26T05:19:49;0.30;99.90
17421;DHT22;8828;48.800;9.540;2023-02-26T05:22:17;0.20;99.90
17421;DHT22;8828;48.800;9.540;2023-02-26T05:24:45;0.20;99.90
17421;DHT22;8828;48.800;9.540;2023-02-26T05:27:15;0.20;99.90
17421;DHT22;8828;48.800;9.540;2023-02-26T05:29:43;0.20;99.90
17421;DHT22;8828;48.800;9.540;2023-02-26T05:32:12;0.30;99.90
17421;DHT22;8828;48.800;9.540;2023-02-26T05:34:40;0.30;99.90
17421;DHT22;8828;48.800;9.540;2023-02-26T05:37:08;0.30;99.90
17421;DHT22;8828;48.800;9.540;2023-02-26T05:39:36;0.30;99.90
17421;DHT22;8828;48.800;9.540;2023-02-26T05:42:04;0.30;99.90
17421;DHT22;8828;48.800;9.540;2023-02-26T05:44:33;0.30;99.90
17421;DHT22;8828;48.800;9.540;2023-02-26T05:47:01;0.20;99.90
17421;DHT22;8828;48.800;9.540;2023-02-26T05:49:29;0.20;99.90
17421;DHT22;8828;48.800;9.540;2023-02-26T05:51:57;0.20;99.90
17421;DHT22;8828;48.800;9.540;2023-02-26T05:54:25;0.20;99.90
17421;DHT22;8828;48.800;9.540;2023-02-26T05:56:53;0.20;99.90
17421;DHT22;8828;48.800;9.540;2023-02-26T05:59:21;0.20;99.90
17421;DHT22;8828;48.800;9.540;2023-02-26T06:01:50;0.20;99.90
17421;DHT22;8828;48.800;9.540;2023-02-26T06:04:18;0.20;99.90
17421;DHT22;8828;48.800;9.540;2023-02-26T06:06:46;0.20;99.90
17421;DHT22;8828;48.800;9.540;2023-02-26T06:09:15;0.30;99.90
17421;DHT22;8828;48.800;9.540;2023-02-26T06:11:43;0.30;99.90
17421;DHT22;8828;48.800;9.540;2023-02-26T06:14:10;0.20;99.90
17421;DHT22;8828;48.800;9.540;2023-02-26T06:16:38;0.20;99.90
17421;DHT22;8828;48.800;9.540;2023-02-26T06:19:08;0.30;99.90
17421;DHT22;8828;48.800;9.540;2023-02-26T06:21:36;0.20;99.90
17421;DHT22;8828;48.800;9.540;2023-02-26T06:24:04;0.20;99.90
17421;DHT22;8828;48.800;9.540;2023-02-26T06:26:32;0.20;99.90
17421;DHT22;8828;48.800;9.540;2023-02-26T06:29:00;0.20;99.90
17421;DHT22;8828;48.800;9.540;2023-02-26T06:31:28;0.30;99.90
17421;DHT22;8828;48.800;9.540;2023-02-26T06:33:56;0.30;99.90
17421;DHT22;8828;48.800;9.540;2023-02-26T06:36:25;0.30;99.90
17421;DHT22;8828;48.800;9.540;2023-02-26T06:38:53;0.30;99.90
17421;DHT22;8828;48.800;9.540;2023-02-26T06:41:21;0.40;99.90
17421;DHT22;8828;48.800;9.540;2023-02-26T06:43:49;0.50;99.90
17421;DHT22;8828;48.800;9.540;2023-02-26T06:46:17;0.50;99.90
17421;DHT22;8828;48.800;9.540;2023-02-26T06:48:45;0.60;99.90
17421;DHT22;8828;48.800;9.540;2023-02-26T06:51:13;0.60;99.90
17421;DHT22;8828;48.800;9.540;2023-02-26T06:53:42;0.70;99.90
17421;DHT22;8828;48.800;9.540;2023-02-26T06:56:10;0.70;99.90
17421;DHT22;8828;48.800;9.540;2023-02-26T06:58:38;0.70;99.90
17421;DHT22;8828;48.800;9.540;2023-02-26T07:01:06;0.80;99.90
17421;DHT22;8828;48.800;9.540;2023-02-26T07:03:34;0.90;99.90
17421;DHT22;8828;48.800;9.540;2023-02-26T07:06:02;1.00;99.90
17421;DHT22;8828;48.800;9.540;2023-02-26T07:08:52;1.20;99.90
17421;DHT22;8828;48.800;9.540;2023-02-26T07:11:20;1.30;99.90
17421;DHT22;8828;48.800;9.540;2023-02-26T07:13:48;1.20;99.90
17421;DHT22;8828;48.800;9.540;2023-02-26T07:16:17;1.30;99.90
17421;DHT22;8828;48.800;9.540;2023-02-26T07:18:45;1.30;99.90
17421;DHT22;8828;48.800;9.540;2023-02-26T07:21:13;1.40;99.90
17421;DHT22;8828;48.800;9.540;2023-02-26T07:23:41;1.40;99.90
17421;DHT22;8828;48.800;9.540;2023-02-26T07:26:10;1.50;99.90
17421;DHT22;8828;48.800;9.540;2023-02-26T07:28:38;1.50;99.90
17421;DHT22;8828;48.800;9.540;2023-02-26T07:31:06;1.50;99.90
17421;DHT22;8828;48.800;9.540;2023-02-26T07:33:34;1.50;99.90
17421;DHT22;8828;48.800;9.540;2023-02-26T07:36:04;1.70;99.90
17421;DHT22;8828;48.800;9.540;2023-02-26T07:38:32;1.80;99.90
17421;DHT22;8828;48.800;9.540;2023-02-26T07:41:00;2.00;99.90
17421;DHT22;8828;48.800;9.540;2023-02-26T07:43:29;2.30;99.90
17421;DHT22;8828;48.800;9.540;2023-02-26T07:45:57;2.40;99.90
17421;DHT22;8828;48.800;9.540;2023-02-26T07:48:25;2.70;99.90
17421;DHT22;8828;48.800;9.540;2023-02-26T07:50:54;3.00;99.90
17421;DHT22;8828;48.800;9.540;2023-02-26T07:53:22;3.60;99.90
17421;DHT22;8828;48.800;9.540;2023-02-26T07:55:50;4.40;99.90
17421;DHT22;8828;48.800;9.540;2023-02-26T07:58:18;4.50;99.90
17421;DHT22;8828;48.800;9.540;2023-02-26T08:00:47;4.40;99.90
17421;DHT22;8828;48.800;9.540;2023-02-26T08:03:15;4.30;99.90
17421;DHT22;8828;48.800;9.540;2023-02-26T08:05:43;4.10;99.90
17421;DHT22;8828;48.800;9.540;2023-02-26T08:08:11;4.00;99.90
17421;DHT22;8828;48.800;9.540;2023-02-26T08:10:39;3.90;99.90
17421;DHT22;8828;48.800;9.540;2023-02-26T08:13:08;3.80;99.90
17421;DHT22;8828;48.800;9.540;2023-02-26T08:15:36;3.60;99.90
17421;DHT22;8828;48.800;9.540;2023-02-26T08:18:06;3.50;99.90
17421;DHT22;8828;48.800;9.540;2023-02-26T08:20:34;3.50;99.90
17421;DHT22;8828;48.800;9.540;2023-02-26T08:23:01;3.40;99.90
17421;DHT22;8828;48.800;9.540;2023-02-26T08:25:29;3.40;99.90
17421;DHT22;8828;48.800;9.540;2023-02-26T08:27:57;3.30;99.90
17421;DHT22;8828;48.800;9.540;2023-02-26T08:30:26;3.20;99.90
17421;DHT22;8828;48.800;9.540;2023-02-26T08:32:54;3.20;99.90
17421;DHT22;8828;48.800;9.540;2023-02-26T08:35:24;3.10;99.90
17421;DHT22;8828;48.800;9.540;2023-02-26T08:37:52;3.20;99.90
17421;DHT22;8828;48.800;9.540;2023-02-26T08:40:20;3.20;99.90
17421;DHT22;8828;48.800;9.540;2023-02-26T08:42:48;3.30;99.90
17421;DHT22;8828;48.800;9.540;2023-02-26T08:45:16;3.40;99.90
17421;DHT22;8828;48.800;9.540;2023-02-26T08:47:44;3.30;99.90
17421;DHT22;8828;48.800;9.540;2023-02-26T08:50:24;3.30;99.90
17421;DHT22;8828;48.800;9.540;2023-02-26T08:52:52;3.30;99.90
17421;DHT22;8828;48.800;9.540;2023-02-26T08:55:21;3.30;99.90
17421;DHT22;8828;48.800;9.540;2023-02-26T08:57:49;3.20;99.90
17421;DHT22;8828;48.800;9.540;2023-02-26T09:00:18;3.20;99.90
17421;DHT22;8828;48.800;9.540;2023-02-26T09:02:46;3.10;99.90
17421;DHT22;8828;48.800;9.540;2023-02-26T09:05:14;3.10;99.90
17421;DHT22;8828;48.800;9.540;2023-02-26T09:07:44;3.00;99.90
17421;DHT22;8828;48.800;9.540;2023-02-26T09:10:14;3.00;99.90
17421;DHT22;8828;48.800;9.540;2023-02-26T09:12:43;3.10;99.90
17421;DHT22;8828;48.800;9.540;2023-02-26T09:15:12;3.10;99.90
17421;DHT22;8828;48.800;9.540;2023-02-26T09:17:41;3.20;99.90
17421;DHT22;8828;48.800;9.540;2023-02-26T09:20:10;3.40;99.90
17421;DHT22;8828;48.800;9.540;2023-02-26T09:22:39;3.50;99.90
17421;DHT22;8828;48.800;9.540;2023-02-26T09:25:10;3.70;99.90
17421;DHT22;8828;48.800;9.540;2023-02-26T09:27:38;3.80;99.90
17421;DHT22;8828;48.800;9.540;2023-02-26T09:30:07;3.80;99.90
17421;DHT22;8828;48.800;9.540;2023-02-26T09:32:35;3.90;99.90
17421;DHT22;8828;48.800;9.540;2023-02-26T09:35:04;4.00;99.90
17421;DHT22;8828;48.800;9.540;2023-02-26T09:37:32;4.00;99.90
17421;DHT22;8828;48.800;9.540;2023-02-26T09:40:00;4.10;99.90
17421;DHT22;8828;48.800;9.540;2023-02-26T09:42:42;4.30;99.90
17421;DHT22;8828;48.800;9.540;2023-02-26T09:45:16;4.30;99.90
17421;DHT22;8828;48.800;9.540;2023-02-26T09:47:49;4.20;99.90
17421;DHT22;8828;48.800;9.540;2023-02-26T09:50:21;4.10;99.90
17421;DHT22;8828;48.800;9.540;2023-02-26T09:52:54;3.90;99.90
17421;DHT22;8828;48.800;9.540;2023-02-26T09:55:27;3.70;99.90
17421;DHT22;8828;48.800;9.540;2023-02-26T09:57:59;3.70;99.90
17421;DHT22;8828;48.800;9.540;2023-02-26T10:00:33;3.60;99.90
17421;DHT22;8828;48.800;9.540;2023-02-26T10:03:16;3.60;99.90
17421;DHT22;8828;48.800;9.540;2023-02-26T10:05:55;3.50;99.90
17421;DHT22;8828;48.800;9.540;2023-02-26T10:08:35;3.40;99.90
17421;DHT22;8828;48.800;9.540;2023-02-26T10:11:07;3.30;99.90
17421;DHT22;8828;48.800;9.540;2023-02-26T10:13:44;3.30;99.90
17421;DHT22;8828;48.800;9.540;2023-02-26T10:16:26;3.30;99.90
17421;DHT22;8828;48.800;9.540;2023-02-26T10:19:00;3.20;99.90
17421;DHT22;8828;48.800;9.540;2023-02-26T10:21:32;3.30;99.90
17421;DHT22;8828;48.800;9.540;2023-02-26T10:24:05;3.20;99.90
17421;DHT22;8828;48.800;9.540;2023-02-26T10:26:36;3.30;99.90
17421;DHT22;8828;48.800;9.540;2023-02-26T10:29:16;3.30;99.90
17421;DHT22;8828;48.800;9.540;2023-02-26T10:31:56;3.30;99.90
17421;DHT22;8828;48.800;9.540;2023-02-26T10:34:29;3.40;99.90
17421;DHT22;8828;48.800;9.540;2023-02-26T10:37:07;3.50;99.90
17421;DHT22;8828;48.800;9.540;2023-02-26T10:39:41;3.50;99.90
17421;DHT22;8828;48.800;9.540;2023-02-26T10:42:14;3.50;99.90
17421;DHT22;8828;48.800;9.540;2023-02-26T10:44:50;3.50;99.90
17421;DHT22;8828;48.800;9.540;2023-02-26T10:47:24;3.60;99.90
17421;DHT22;8828;48.800;9.540;2023-02-26T10:49:59;3.60;99.90
17421;DHT22;8828;48.800;9.540;2023-02-26T10:52:31;3.80;99.90
17421;DHT22;8828;48.800;9.540;2023-02-26T10:55:06;4.10;99.90
17421;DHT22;8828;48.800;9.540;2023-02-26T10:57:37;4.40;99.90
17421;DHT22;8828;48.800;9.540;2023-02-26T11:00:15;4.70;99.90
17421;DHT22;8828;48.800;9.540;2023-02-26T11:02:45;4.90;99.90
17421;DHT22;8828;48.800;9.540;2023-02-26T11:05:16;5.20;99.90
17421;DHT22;8828;48.800;9.540;2023-02-26T11:07:48;5.80;99.90
17421;DHT22;8828;48.800;9.540;2023-02-26T11:10:20;6.40;99.90
17421;DHT22;8828;48.800;9.540;2023-02-26T11:12:49;6.60;99.90
17421;DHT22;8828;48.800;9.540;2023-02-26T11:15:20;6.60;99.90
17421;DHT22;8828;48.800;9.540;2023-02-26T11:17:53;6.60;99.90
17421;DHT22;8828;48.800;9.540;2023-02-26T11:20:29;6.60;99.90
17421;DHT22;8828;48.800;9.540;2023-02-26T11:22:58;6.60;99.90
17421;DHT22;8828;48.800;9.540;2023-02-26T11:25:29;6.40;99.90
17421;DHT22;8828;48.800;9.540;2023-02-26T11:28:04;6.10;99.90
17421;DHT22;8828;48.800;9.540;2023-02-26T11:30:35;5.80;99.90
17421;DHT22;8828;48.800;9.540;2023-02-26T11:33:13;5.50;99.90
17421;DHT22;8828;48.800;9.540;2023-02-26T11:35:42;5.30;99.90
17421;DHT22;8828;48.800;9.540;2023-02-26T11:38:17;5.00;99.90
17421;DHT22;8828;48.800;9.540;2023-02-26T11:40:47;4.90;99.90
17421;DHT22;8828;48.800;9.540;2023-02-26T11:43:18;4.80;99.90
17421;DHT22;8828;48.800;9.540;2023-02-26T11:45:51;4.70;99.90
17421;DHT22;8828;48.800;9.540;2023-02-26T11:48:23;4.60;99.90
17421;DHT22;8828;48.800;9.540;2023-02-26T11:50:55;4.50;99.90
17421;DHT22;8828;48.800;9.540;2023-02-26T11:53:28;4.50;99.90
17421;DHT22;8828;48.800;9.540;2023-02-26T11:56:00;4.70;99.90
17421;DHT22;8828;48.800;9.540;2023-02-26T11:58:33;4.90;99.90
17421;DHT22;8828;48.800;9.540;2023-02-26T12:01:05;5.20;99.90
17421;DHT22;8828;48.800;9.540;2023-02-26T12:03:37;5.40;99.90
17421;DHT22;8828;48.800;9.540;2023-02-26T12:06:13;5.60;99.90
17421;DHT22;8828;48.800;9.540;2023-02-26T12:08:43;5.60;99.90
17421;DHT22;8828;48.800;9.540;2023-02-26T12:11:38;5.40;99.90
17421;DHT22;8828;48.800;9.540;2023-02-26T12:14:32;5.20;99.90
17421;DHT22;8828;48.800;9.540;2023-02-26T12:17:12;5.10;99.90
17421;DHT22;8828;48.800;9.540;2023-02-26T12:19:47;5.00;99.90
17421;DHT22;8828;48.800;9.540;2023-02-26T12:22:40;4.90;99.90
17421;DHT22;8828;48.800;9.540;2023-02-26T12:25:28;4.80;99.90
17421;DHT22;8828;48.800;9.540;2023-02-26T12:28:31;4.70;99.90
17421;DHT22;8828;48.800;9.540;2023-02-26T12:34:04;4.80;99.90
17421;DHT22;8828;48.800;9.540;2023-02-26T12:36:45;5.00;99.90
17421;DHT22;8828;48.800;9.540;2023-02-26T12:39:35;5.00;99.90
17421;DHT22;8828;48.800;9.540;2023-02-26T12:42:16;5.00;99.90
17421;DHT22;8828;48.800;9.540;2023-02-26T12:45:11;4.90;99.90
17421;DHT22;8828;48.800;9.540;2023-02-26T12:47:50;4.80;99.90
17421;DHT22;8828;48.800;9.540;2023-02-26T12:50:37;4.80;99.90
17421;DHT22;8828;48.800;9.540;2023-02-26T12:53:28;4.70;99.90
17421;DHT22;8828;48.800;9.540;2023-02-26T12:56:09;4.60;99.90
17421;DHT22;8828;48.800;9.540;2023-02-26T12:58:47;4.50;99.90
17421;DHT22;8828;48.800;9.540;2023-02-26T13:01:30;4.50;99.90
17421;DHT22;8828;48.800;9.540;2023-02-26T13:04:27;4.40;99.90
17421;DHT22;8828;48.800;9.540;2023-02-26T13:10:13;4.40;99.90
17421;DHT22;8828;48.800;9.540;2023-02-26T13:12:48;4.50;99.90
17421;DHT22;8828;48.800;9.540;2023-02-26T13:15:35;4.50;99.90
17421;DHT22;8828;48.800;9.540;2023-02-26T13:18:08;4.50;99.90
17421;DHT22;8828;48.800;9.540;2023-02-26T13:20:40;4.50;99.90
17421;DHT22;8828;48.800;9.540;2023-02-26T13:23:19;4.50;99.90
17421;DHT22;8828;48.800;9.540;2023-02-26T13:25:52;4.80;99.90
17421;DHT22;8828;48.800;9.540;2023-02-26T13:28:24;5.60;99.90
17421;DHT22;8828;48.800;9.540;2023-02-26T13:30:58;6.60;99.90
17421;DHT22;8828;48.800;9.540;2023-02-26T13:33:30;7.10;99.90
17421;DHT22;8828;48.800;9.540;2023-02-26T13:36:00;7.40;99.90
17421;DHT22;8828;48.800;9.540;2023-02-26T13:38:37;7.40;99.90
17421;DHT22;8828;48.800;9.540;2023-02-26T13:41:12;7.10;99.90
17421;DHT22;8828;48.800;9.540;2023-02-26T13:44:03;6.70;99.90
17421;DHT22;8828;48.800;9.540;2023-02-26T13:46:46;6.40;99.90
17421;DHT22;8828;48.800;9.540;2023-02-26T13:49:18;6.20;99.90
17421;DHT22;8828;48.800;9.540;2023-02-26T13:51:52;6.00;99.90
17421;DHT22;8828;48.800;9.540;2023-02-26T13:54:47;5.80;99.90
17421;DHT22;8828;48.800;9.540;2023-02-26T13:57:24;5.60;99.90
17421;DHT22;8828;48.800;9.540;2023-02-26T13:59:59;5.60;99.90
17421;DHT22;8828;48.800;9.540;2023-02-26T14:02:45;5.50;99.90
17421;DHT22;8828;48.800;9.540;2023-02-26T14:05:35;5.50;99.90
17421;DHT22;8828;48.800;9.540;2023-02-26T14:08:42;5.40;99.90
17421;DHT22;8828;48.800;9.540;2023-02-26T14:14:25;6.50;99.90
17421;DHT22;8828;48.800;9.540;2023-02-26T14:17:18;6.80;99.90
17421;DHT22;8828;48.800;9.540;2023-02-26T14:20:16;7.80;99.90
17421;DHT22;8828;48.800;9.540;2023-02-26T14:22:47;8.60;99.90
17421;DHT22;8828;48.800;9.540;2023-02-26T14:25:19;8.40;99.90
17421;DHT22;8828;48.800;9.540;2023-02-26T14:27:49;8.20;99.90
17421;DHT22;8828;48.800;9.540;2023-02-26T14:30:27;7.80;99.90
17421;DHT22;8828;48.800;9.540;2023-02-26T14:33:07;7.60;99.90
17421;DHT22;8828;48.800;9.540;2023-02-26T14:35:38;7.40;99.90
17421;DHT22;8828;48.800;9.540;2023-02-26T14:38:11;7.30;99.90
17421;DHT22;8828;48.800;9.540;2023-02-26T14:40:43;7.30;99.90
17421;DHT22;8828;48.800;9.540;2023-02-26T14:43:17;7.10;99.90
17421;DHT22;8828;48.800;9.540;2023-02-26T14:45:49;6.90;99.90
17421;DHT22;8828;48.800;9.540;2023-02-26T14:48:20;6.70;99.90
17421;DHT22;8828;48.800;9.540;2023-02-26T14:51:01;6.50;99.90
17421;DHT22;8828;48.800;9.540;2023-02-26T14:54:04;6.40;99.90
17421;DHT22;8828;48.800;9.540;2023-02-26T14:56:47;6.10;99.90
17421;DHT22;8828;48.800;9.540;2023-02-26T14:59:29;5.80;99.90
17421;DHT22;8828;48.800;9.540;2023-02-26T15:02:08;5.50;99.90
17421;DHT22;8828;48.800;9.540;2023-02-26T15:08:15;5.10;99.90
17421;DHT22;8828;48.800;9.540;2023-02-26T15:10:59;5.00;99.90
17421;DHT22;8828;48.800;9.540;2023-02-26T15:13:44;4.90;99.90
17421;DHT22;8828;48.800;9.540;2023-02-26T15:16:26;5.00;99.90
17421;DHT22;8828;48.800;9.540;2023-02-26T15:19:08;5.20;99.90
17421;DHT22;8828;48.800;9.540;2023-02-26T15:21:49;5.20;99.90
17421;DHT22;8828;48.800;9.540;2023-02-26T15:24:23;5.30;99.90
17421;DHT22;8828;48.800;9.540;2023-02-26T15:26:53;5.30;99.90
17421;DHT22;8828;48.800;9.540;2023-02-26T15:29:26;5.20;99.90
17421;DHT22;8828;48.800;9.540;2023-02-26T15:31:58;5.00;99.90
17421;DHT22;8828;48.800;9.540;2023-02-26T15:34:30;4.90;99.90
17421;DHT22;8828;48.800;9.540;2023-02-26T15:36:59;4.80;99.90
17421;DHT22;8828;48.800;9.540;2023-02-26T15:39:28;4.80;99.90
17421;DHT22;8828;48.800;9.540;2023-02-26T15:41:56;4.80;99.90
17421;DHT22;8828;48.800;9.540;2023-02-26T15:44:26;4.70;99.90
17421;DHT22;8828;48.800;9.540;2023-02-26T15:46:57;4.80;99.90
17421;DHT22;8828;48.800;9.540;2023-02-26T15:49:32;4.80;99.90
17421;DHT22;8828;48.800;9.540;2023-02-26T15:52:02;4.80;99.90
17421;DHT22;8828;48.800;9.540;2023-02-26T15:54:34;4.80;99.90
17421;DHT22;8828;48.800;9.540;2023-02-26T15:57:03;4.70;99.90
17421;DHT22;8828;48.800;9.540;2023-02-26T15:59:32;4.70;99.90
17421;DHT22;8828;48.800;9.540;2023-02-26T16:02:01;4.60;99.90
17421;DHT22;8828;48.800;9.540;2023-02-26T16:04:34;4.50;99.90
17421;DHT22;8828;48.800;9.540;2023-02-26T16:07:02;4.40;99.90
17421;DHT22;8828;48.800;9.540;2023-02-26T16:09:34;4.30;99.90
17421;DHT22;8828;48.800;9.540;2023-02-26T16:12:06;4.20;99.90
17421;DHT22;8828;48.800;9.540;2023-02-26T16:14:37;4.10;99.90
17421;DHT22;8828;48.800;9.540;2023-02-26T16:17:07;4.00;99.90
17421;DHT22;8828;48.800;9.540;2023-02-26T16:19:41;4.00;99.90
17421;DHT22;8828;48.800;9.540;2023-02-26T16:22:17;4.00;99.90
17421;DHT22;8828;48.800;9.540;2023-02-26T16:24:49;4.00;99.90
17421;DHT22;8828;48.800;9.540;2023-02-26T16:27:19;3.90;99.90
17421;DHT22;8828;48.800;9.540;2023-02-26T16:29:50;3.90;99.90
17421;DHT22;8828;48.800;9.540;2023-02-26T16:32:19;3.90;99.90
17421;DHT22;8828;48.800;9.540;2023-02-26T16:34:51;3.80;99.90
17421;DHT22;8828;48.800;9.540;2023-02-26T16:37:25;3.80;99.90
17421;DHT22;8828;48.800;9.540;2023-02-26T16:39:55;3.80;99.90
17421;DHT22;8828;48.800;9.540;2023-02-26T16:42:35;3.80;99.90
17421;DHT22;8828;48.800;9.540;2023-02-26T16:45:19;3.80;99.90
17421;DHT22;8828;48.800;9.540;2023-02-26T16:47:51;3.70;99.90
17421;DHT22;8828;48.800;9.540;2023-02-26T16:50:24;3.70;99.90
17421;DHT22;8828;48.800;9.540;2023-02-26T16:52:58;3.70;99.90